Time;durP1;ratioP1;P1;durP2;ratioP2;P2;SDS_P1;SDS_P2;PMS_P1;PMS_P2;Temp;Humidity;BMP_temperature;BMP_pressure;BME280_temperature;BME280_humidity;BME280_pressure;Samples;Min_cycle;Max_cycle;Signal;HPM_P1;HPM_P2
2022/12/11 00:00:28;;;;;;;61.40;22.13;;;4.30;99.90;;;;;;5010399;28;20049;-86
2022/12/11 00:02:55;;;;;;;70.05;24.80;;;4.30;99.90;;;;;;5011014;28;20073;-86
2022/12/11 00:05:22;;;;;;;67.72;24.05;;;4.30;99.90;;;;;;5011221;28;20088;-85
2022/12/11 00:07:49;;;;;;;70.65;25.63;;;4.30;99.90;;;;;;5011287;28;20065;-86
2022/12/11 00:10:17;;;;;;;67.63;23.55;;;4.40;99.90;;;;;;5010443;28;20069;-86
2022/12/11 00:12:45;;;;;;;67.35;24.73;;;4.30;99.90;;;;;;5009798;28;20046;-86
2022/12/11 00:15:12;;;;;;;76.78;25.95;;;4.30;99.90;;;;;;5011309;28;20042;-86
2022/12/11 00:17:39;;;;;;;68.57;24.95;;;4.30;99.90;;;;;;5011290;28;20041;-86
2022/12/11 00:20:07;;;;;;;71.60;24.65;;;4.30;99.90;;;;;;5009163;28;20045;-86
2022/12/11 00:22:34;;;;;;;82.57;25.05;;;4.30;99.90;;;;;;5011456;28;20050;-86
2022/12/11 00:25:01;;;;;;;83.55;26.67;;;4.30;99.90;;;;;;5011388;28;20050;-86
2022/12/11 00:27:28;;;;;;;81.78;27.85;;;4.30;99.90;;;;;;5009307;28;20058;-86
2022/12/11 00:29:56;;;;;;;77.53;27.02;;;4.30;99.90;;;;;;5012382;28;20050;-86
2022/12/11 00:32:23;;;;;;;78.05;26.38;;;4.30;99.90;;;;;;5009393;28;20042;-86
2022/12/11 00:34:50;;;;;;;82.72;26.20;;;4.30;99.90;;;;;;5009185;28;20078;-86
2022/12/11 00:37:17;;;;;;;76.63;27.75;;;4.30;99.90;;;;;;5011493;28;20042;-86
2022/12/11 00:39:44;;;;;;;79.90;25.67;;;4.30;99.90;;;;;;5007883;28;20054;-86
2022/12/11 00:42:11;;;;;;;87.68;29.90;;;4.30;99.90;;;;;;5009016;28;20133;-86
2022/12/11 00:44:38;;;;;;;87.30;29.20;;;4.30;99.90;;;;;;5008639;28;20057;-86
2022/12/11 00:47:07;;;;;;;86.55;28.23;;;4.30;99.90;;;;;;4991641;28;20128;-86
2022/12/11 00:49:34;;;;;;;83.85;29.50;;;4.30;99.90;;;;;;5006926;28;20786;-86
2022/12/11 00:52:01;;;;;;;83.75;28.00;;;4.30;99.90;;;;;;5012141;28;20121;-85
2022/12/11 00:54:28;;;;;;;84.03;29.13;;;4.30;99.90;;;;;;5010605;28;20890;-86
2022/12/11 00:56:55;;;;;;;86.78;28.75;;;4.30;99.90;;;;;;5010879;28;20046;-86
2022/12/11 00:59:22;;;;;;;87.30;28.23;;;4.30;99.90;;;;;;5009213;28;20042;-86
2022/12/11 01:01:49;;;;;;;90.32;30.73;;;4.30;99.90;;;;;;5008577;28;20494;-86
2022/12/11 01:04:17;;;;;;;86.70;30.15;;;4.30;99.90;;;;;;5008615;28;20053;-86
2022/12/11 01:06:44;;;;;;;99.95;30.20;;;4.30;99.90;;;;;;5003856;28;20054;-86
2022/12/11 01:11:55;;;;;;;84.30;28.45;;;4.40;99.90;;;;;;5014909;28;20053;-86
2022/12/11 01:14:22;;;;;;;91.45;30.23;;;4.30;99.90;;;;;;5009901;28;20387;-86
2022/12/11 01:16:49;;;;;;;94.13;32.63;;;4.40;99.90;;;;;;5003612;28;20050;-86
2022/12/11 01:19:17;;;;;;;84.88;28.90;;;4.40;99.90;;;;;;5012304;28;20034;-86
2022/12/11 01:21:44;;;;;;;92.82;30.25;;;4.40;99.90;;;;;;5008347;28;20041;-86
2022/12/11 01:24:11;;;;;;;85.50;30.15;;;4.40;99.90;;;;;;5009117;28;20065;-86
2022/12/11 01:26:38;;;;;;;96.10;31.30;;;4.40;99.90;;;;;;5010555;28;20145;-86
2022/12/11 01:29:05;;;;;;;98.07;31.05;;;4.30;99.90;;;;;;5008386;28;20041;-86
2022/12/11 01:31:32;;;;;;;92.97;30.23;;;4.40;99.90;;;;;;5013471;28;20522;-86
2022/12/11 01:33:59;;;;;;;91.93;29.58;;;4.40;99.90;;;;;;5012901;28;20691;-86
2022/12/11 01:36:28;;;;;;;83.38;29.73;;;4.40;99.90;;;;;;5010141;28;20567;-86
2022/12/11 01:38:54;;;;;;;88.18;29.67;;;4.40;99.90;;;;;;5023829;28;20046;-86
2022/12/11 01:41:22;;;;;;;89.10;30.23;;;4.40;99.90;;;;;;5009234;28;20064;-86
2022/12/11 01:44:07;;;;;;;94.80;28.15;;;4.40;99.90;;;;;;5007245;28;20045;-87
2022/12/11 01:46:35;;;;;;;95.78;30.08;;;4.40;99.90;;;;;;5009835;28;20133;-86
2022/12/11 01:49:04;;;;;;;86.50;29.95;;;4.40;99.90;;;;;;5008547;28;20042;-86
2022/12/11 01:51:36;;;;;;;77.80;28.50;;;4.40;99.90;;;;;;5014146;28;20045;-86
2022/12/11 01:54:07;;;;;;;78.93;26.60;;;4.40;99.90;;;;;;5009929;28;20510;-85
2022/12/11 01:56:34;;;;;;;;;;;4.40;99.90;;;;;;5009678;28;20476;-86
2022/12/11 01:59:06;;;;;;;84.88;27.48;;;4.40;99.90;;;;;;5019204;28;20304;-87
2022/12/11 02:01:35;;;;;;;81.45;26.48;;;4.50;99.90;;;;;;5016303;28;20588;-86
2022/12/11 02:04:03;;;;;;;83.18;28.63;;;4.40;99.90;;;;;;5008320;28;20091;-86
2022/12/11 02:06:34;;;;;;;79.82;27.80;;;4.40;99.90;;;;;;5009397;28;20045;-86
2022/12/11 02:09:01;;;;;;;86.00;28.88;;;4.40;99.90;;;;;;4990403;28;20060;-86
2022/12/11 02:11:35;;;;;;;77.03;26.23;;;4.40;99.90;;;;;;5015067;28;20045;-86
2022/12/11 02:14:06;;;;;;;73.82;26.50;;;4.40;99.90;;;;;;5008465;28;20053;-86
2022/12/11 02:16:38;;;;;;;69.72;25.58;;;4.50;99.90;;;;;;5052716;23;20084;-78
2022/12/11 02:19:10;;;;;;;66.80;23.50;;;4.40;99.90;;;;;;5048463;28;20127;-78
2022/12/11 02:21:42;;;;;;;54.60;21.40;;;4.50;99.90;;;;;;5048961;28;20098;-78
2022/12/11 02:24:25;;;;;;;61.60;21.27;;;4.40;99.90;;;;;;5028957;28;20142;-78
2022/12/11 02:27:08;;;;;;;55.15;20.60;;;4.40;99.90;;;;;;5029761;28;20047;-78
2022/12/11 02:29:38;;;;;;;58.20;21.23;;;4.40;99.90;;;;;;5046950;28;20056;-78
2022/12/11 02:32:10;;;;;;;57.45;18.95;;;4.40;99.90;;;;;;5048662;28;20033;-78
2022/12/11 02:34:41;;;;;;;53.13;20.50;;;4.40;99.90;;;;;;5042912;28;20527;-78
2022/12/11 02:37:13;;;;;;;54.63;20.63;;;4.40;99.90;;;;;;5036758;28;20136;-78
2022/12/11 02:39:41;;;;;;;55.47;21.00;;;4.40;99.90;;;;;;5029480;28;20077;-78
2022/12/11 02:42:10;;;;;;;55.70;19.42;;;4.40;99.90;;;;;;5031435;28;20033;-78
2022/12/11 02:44:38;;;;;;;54.65;20.77;;;4.40;99.90;;;;;;5048705;28;20493;-78
2022/12/11 02:47:11;;;;;;;56.70;19.60;;;4.40;99.90;;;;;;5044655;28;20564;-77
2022/12/11 02:49:40;;;;;;;56.35;21.98;;;4.40;99.90;;;;;;5036585;28;20046;-78
2022/12/11 02:52:07;;;;;;;55.45;20.40;;;4.40;99.90;;;;;;5030768;28;20048;-78
2022/12/11 02:54:38;;;;;;;57.05;21.77;;;4.40;99.90;;;;;;5028137;28;20110;-78
2022/12/11 02:57:08;;;;;;;61.80;22.57;;;4.40;99.90;;;;;;5039638;28;20082;-80
2022/12/11 02:59:39;;;;;;;57.67;23.37;;;4.40;99.90;;;;;;5043995;28;20170;-78
2022/12/11 03:02:06;;;;;;;61.88;23.63;;;4.30;99.90;;;;;;5041198;28;20129;-78
2022/12/11 03:04:35;;;;;;;55.90;21.83;;;4.40;99.90;;;;;;5032565;28;20130;-78
2022/12/11 03:07:11;;;;;;;59.60;21.92;;;4.40;99.90;;;;;;5044738;28;20053;-78
2022/12/11 03:09:39;;;;;;;54.80;20.92;;;4.40;99.90;;;;;;5048727;28;20072;-78
2022/12/11 03:12:07;;;;;;;55.90;21.35;;;4.40;99.90;;;;;;5035808;28;20033;-78
2022/12/11 03:14:34;;;;;;;53.88;20.73;;;4.40;99.90;;;;;;5046667;28;20749;-78
2022/12/11 03:17:07;;;;;;;53.22;20.50;;;4.40;99.90;;;;;;5044111;28;20052;-78
2022/12/11 03:19:36;;;;;;;57.25;23.15;;;4.40;99.90;;;;;;5049104;28;20568;-78
2022/12/11 03:22:10;;;;;;;59.20;23.05;;;4.40;99.90;;;;;;5041494;28;20041;-78
2022/12/11 03:24:43;;;;;;;53.72;21.30;;;4.40;99.90;;;;;;5028434;28;20049;-78
2022/12/11 03:27:16;;;;;;;56.05;22.55;;;4.40;99.90;;;;;;5035899;28;20041;-78
2022/12/11 03:29:48;;;;;;;58.00;21.42;;;4.40;99.90;;;;;;5041743;28;20041;-78
2022/12/11 03:32:21;;;;;;;54.45;21.92;;;4.40;99.90;;;;;;5047310;28;20556;-78
2022/12/11 03:34:52;;;;;;;51.15;21.58;;;4.40;99.90;;;;;;5043684;28;20049;-78
2022/12/11 03:37:21;;;;;;;57.25;21.98;;;4.40;99.90;;;;;;5038842;28;20088;-79
2022/12/11 03:39:51;;;;;;;55.58;21.67;;;4.40;99.90;;;;;;5049238;28;20041;-78
2022/12/11 03:42:20;;;;;;;55.40;21.70;;;4.40;99.90;;;;;;5047204;28;20055;-78
2022/12/11 03:44:49;;;;;;;56.70;22.48;;;4.60;99.90;;;;;;5044155;28;20119;-78
2022/12/11 03:47:21;;;;;;;56.38;22.63;;;4.40;99.90;;;;;;5048217;28;20045;-78
2022/12/11 03:49:49;;;;;;;58.15;21.10;;;4.40;99.90;;;;;;5046397;28;20045;-78
2022/12/11 03:52:17;;;;;;;57.65;22.90;;;4.40;99.90;;;;;;5039520;28;20033;-78
2022/12/11 03:54:46;;;;;;;57.88;22.70;;;4.40;99.90;;;;;;5037966;28;20044;-78
2022/12/11 03:57:16;;;;;;;60.90;22.55;;;4.40;99.90;;;;;;5039575;28;20041;-78
2022/12/11 03:59:43;;;;;;;60.78;23.25;;;4.40;99.90;;;;;;5047314;28;20049;-78
2022/12/11 04:02:10;;;;;;;59.22;22.27;;;4.40;99.90;;;;;;5027827;28;20040;-79
2022/12/11 04:04:39;;;;;;;60.42;22.48;;;4.50;99.90;;;;;;5027999;28;20048;-78
2022/12/11 04:07:06;;;;;;;61.47;23.15;;;4.40;99.90;;;;;;5043703;28;20063;-78
2022/12/11 04:09:34;;;;;;;68.72;24.20;;;4.40;99.90;;;;;;5051389;28;20059;-78
2022/12/11 04:12:01;;;;;;;56.70;23.33;;;4.40;99.90;;;;;;5064137;28;20051;-78
2022/12/11 04:24:13;;;;;;;62.47;24.55;;;4.40;99.90;;;;;;5048110;28;20126;-78
2022/12/11 04:25:29;;;;;;;69.63;25.85;;;4.40;99.90;;;;;;5041589;28;20037;-78
2022/12/11 04:27:56;;;;;;;69.85;25.35;;;4.40;99.90;;;;;;5038287;28;20073;-78
2022/12/11 04:30:25;;;;;;;70.18;26.73;;;4.40;99.90;;;;;;5051130;28;20040;-79
2022/12/11 04:32:53;;;;;;;75.18;26.33;;;4.50;99.90;;;;;;5044109;28;20045;-78
2022/12/11 04:35:22;;;;;;;68.90;25.58;;;4.50;99.90;;;;;;5050078;28;20569;-78
2022/12/11 04:37:50;;;;;;;68.03;25.20;;;4.50;99.90;;;;;;5045201;28;20111;-78
2022/12/11 04:40:18;;;;;;;70.43;25.23;;;4.50;99.90;;;;;;5049094;28;20048;-78
2022/12/11 04:42:45;;;;;;;65.40;24.83;;;4.50;99.90;;;;;;5046395;28;20071;-78
2022/12/11 04:45:13;;;;;;;65.22;25.45;;;4.50;99.90;;;;;;5045697;28;20414;-78
2022/12/11 04:47:40;;;;;;;67.97;26.58;;;4.50;99.90;;;;;;5049735;28;20051;-78
2022/12/11 04:50:09;;;;;;;69.75;27.23;;;4.50;99.90;;;;;;5048594;28;20128;-79
2022/12/11 04:52:37;;;;;;;64.45;27.10;;;4.50;99.90;;;;;;5045879;28;20041;-79
2022/12/11 04:55:05;;;;;;;70.78;26.73;;;4.50;99.90;;;;;;5055369;28;20036;-79
2022/12/11 04:57:32;;;;;;;72.15;26.85;;;4.50;99.90;;;;;;5046093;28;20048;-79
2022/12/11 04:59:59;;;;;;;69.55;25.95;;;4.50;99.90;;;;;;5049241;28;20052;-79
2022/12/11 05:02:26;;;;;;;67.20;26.48;;;4.50;99.90;;;;;;5049112;28;20048;-79
2022/12/11 05:04:53;;;;;;;69.05;27.48;;;4.50;99.90;;;;;;5041168;28;20053;-79
2022/12/11 05:07:20;;;;;;;69.75;26.17;;;4.50;99.90;;;;;;5048508;28;20435;-79
2022/12/11 05:09:48;;;;;;;65.57;25.58;;;4.50;99.90;;;;;;5030791;28;20551;-79
2022/12/11 05:12:15;;;;;;;65.78;25.67;;;4.50;99.90;;;;;;5046874;28;20047;-79
2022/12/11 05:14:43;;;;;;;66.78;24.77;;;4.50;99.90;;;;;;5049981;28;20049;-79
2022/12/11 05:17:10;;;;;;;64.35;25.98;;;4.50;99.90;;;;;;5049167;28;20041;-78
2022/12/11 05:19:37;;;;;;;66.70;24.58;;;4.50;99.90;;;;;;5049242;28;20144;-79
2022/12/11 05:22:04;;;;;;;63.63;24.20;;;4.50;99.90;;;;;;5040315;28;20045;-79
2022/12/11 05:24:31;;;;;;;65.32;25.30;;;4.50;99.90;;;;;;5048113;28;20812;-79
2022/12/11 05:26:59;;;;;;;67.93;24.75;;;4.50;99.90;;;;;;5049008;28;20073;-79
2022/12/11 05:29:26;;;;;;;63.90;24.17;;;4.50;99.90;;;;;;5046142;28;20129;-79
2022/12/11 05:31:53;;;;;;;59.80;23.63;;;4.50;99.90;;;;;;5048468;28;20041;-79
2022/12/11 05:34:20;;;;;;;63.42;24.17;;;4.50;99.90;;;;;;5047426;28;20123;-79
2022/12/11 05:36:47;;;;;;;59.95;24.60;;;4.50;99.90;;;;;;5037239;28;20067;-79
2022/12/11 05:39:14;;;;;;;65.13;25.00;;;4.50;99.90;;;;;;5047570;28;20055;-79
2022/12/11 05:41:41;;;;;;;64.93;24.75;;;4.50;99.90;;;;;;5046471;28;20041;-79
2022/12/11 05:44:11;;;;;;;62.78;25.13;;;4.60;99.90;;;;;;5048175;28;20252;-79
2022/12/11 05:46:38;;;;;;;60.15;23.92;;;4.50;99.90;;;;;;5047229;28;20059;-79
2022/12/11 05:49:05;;;;;;;60.38;23.80;;;4.50;99.90;;;;;;5041643;28;20053;-79
2022/12/11 05:51:33;;;;;;;65.32;24.65;;;4.50;99.90;;;;;;5030864;28;20037;-79
2022/12/11 05:54:00;;;;;;;58.33;23.45;;;4.50;99.90;;;;;;5044582;28;20521;-79
2022/12/11 05:56:29;;;;;;;59.28;23.90;;;4.50;99.90;;;;;;5046089;28;20045;-79
2022/12/11 05:58:57;;;;;;;63.78;25.05;;;4.50;99.90;;;;;;5048732;28;20053;-79
2022/12/11 06:01:27;;;;;;;64.30;25.20;;;4.50;99.90;;;;;;5032977;28;20536;-79
2022/12/11 06:03:55;;;;;;;61.37;24.10;;;4.70;99.90;;;;;;5041074;28;20133;-79
2022/12/11 06:06:23;;;;;;;61.85;25.20;;;4.50;99.90;;;;;;5049307;28;20045;-79
2022/12/11 06:08:50;;;;;;;60.22;23.25;;;4.50;99.90;;;;;;5046950;28;20086;-79
2022/12/11 06:11:18;;;;;;;62.55;25.85;;;4.60;99.90;;;;;;5049179;28;20047;-78
2022/12/11 06:13:45;;;;;;;56.13;24.27;;;4.60;99.90;;;;;;5045301;28;20116;-78
2022/12/11 06:16:12;;;;;;;58.28;24.80;;;4.60;99.90;;;;;;5056015;28;20062;-82
2022/12/11 06:18:41;;;;;;;68.18;26.33;;;4.60;99.90;;;;;;5049997;28;20429;-80
2022/12/11 06:21:13;;;;;;;59.53;25.67;;;4.60;99.90;;;;;;5029432;28;20045;-81
2022/12/11 06:23:40;;;;;;;65.38;24.80;;;4.60;99.90;;;;;;5041939;28;20059;-80
2022/12/11 06:26:07;;;;;;;61.42;24.48;;;4.60;99.90;;;;;;5047023;28;20045;-78
2022/12/11 06:28:34;;;;;;;65.50;24.90;;;4.60;99.90;;;;;;5035635;28;20063;-79
2022/12/11 06:31:02;;;;;;;62.10;24.27;;;4.60;99.90;;;;;;5045733;28;20037;-79
2022/12/11 06:33:29;;;;;;;65.88;24.95;;;4.60;99.90;;;;;;5050826;28;20049;-79
2022/12/11 06:36:01;;;;;;;61.65;24.80;;;4.60;99.90;;;;;;5048625;28;20382;-79
2022/12/11 06:38:27;;;;;;;66.32;25.02;;;4.60;99.90;;;;;;5040379;28;20180;-78
2022/12/11 06:40:55;;;;;;;67.75;25.45;;;4.60;99.90;;;;;;5033729;28;20053;-79
2022/12/11 06:43:23;;;;;;;60.15;24.35;;;4.60;99.90;;;;;;5051371;28;20049;-79
2022/12/11 06:45:50;;;;;;;59.67;24.80;;;4.60;99.90;;;;;;5048761;28;20051;-79
2022/12/11 06:48:17;;;;;;;59.33;23.77;;;4.60;99.90;;;;;;5040744;28;20405;-78
2022/12/11 06:50:44;;;;;;;63.30;25.05;;;4.60;99.90;;;;;;5048043;28;20049;-79
2022/12/11 06:53:13;;;;;;;71.68;26.20;;;4.60;99.90;;;;;;5035270;28;20036;-78
2022/12/11 06:55:40;;;;;;;64.03;25.33;;;4.60;99.90;;;;;;5048566;28;20056;-79
2022/12/11 06:58:08;;;;;;;64.72;25.00;;;4.60;99.90;;;;;;5048522;28;20516;-78
2022/12/11 07:00:35;;;;;;;66.28;26.05;;;4.60;99.90;;;;;;5040971;28;20049;-79
2022/12/11 07:03:02;;;;;;;70.40;26.65;;;4.60;99.90;;;;;;5040886;28;20041;-78
2022/12/11 07:05:30;;;;;;;63.80;25.05;;;4.60;99.90;;;;;;5044213;28;20667;-79
2022/12/11 07:07:57;;;;;;;68.22;26.05;;;4.60;99.90;;;;;;5031398;28;20049;-79
2022/12/11 07:10:26;;;;;;;65.05;25.45;;;4.60;99.90;;;;;;5045440;28;20044;-78
2022/12/11 07:12:53;;;;;;;57.20;24.77;;;4.60;99.90;;;;;;5046600;28;20063;-79
2022/12/11 07:15:20;;;;;;;65.93;24.52;;;4.60;99.90;;;;;;5047250;28;20191;-79
2022/12/11 07:17:47;;;;;;;60.20;25.02;;;4.60;99.90;;;;;;5041322;28;20056;-78
2022/12/11 07:20:15;;;;;;;62.90;24.58;;;4.60;99.90;;;;;;5047590;28;20068;-78
2022/12/11 07:22:43;;;;;;;61.75;25.05;;;4.60;99.90;;;;;;5052183;28;20124;-77
2022/12/11 07:25:10;;;;;;;59.55;25.80;;;4.60;99.90;;;;;;5040935;28;20102;-77
2022/12/11 07:27:38;;;;;;;57.00;24.88;;;4.60;99.90;;;;;;5045021;28;20064;-77
2022/12/11 07:30:06;;;;;;;60.55;26.02;;;4.60;99.90;;;;;;5028534;28;20052;-77
2022/12/11 07:32:33;;;;;;;63.35;26.23;;;4.60;99.90;;;;;;5036901;28;20538;-79
2022/12/11 07:35:00;;;;;;;59.58;24.73;;;4.60;99.90;;;;;;5047322;28;20045;-78
2022/12/11 07:37:27;;;;;;;63.15;25.70;;;4.60;99.90;;;;;;5041155;28;20037;-79
2022/12/11 07:39:54;;;;;;;59.00;25.50;;;4.60;99.90;;;;;;5039897;28;20049;-78
2022/12/11 07:42:20;;;;;;;68.05;27.67;;;4.60;99.90;;;;;;5030187;28;20044;-78
2022/12/11 07:44:49;;;;;;;69.18;27.65;;;4.60;99.90;;;;;;5035502;28;20436;-79
2022/12/11 07:47:16;;;;;;;65.82;25.73;;;4.60;99.90;;;;;;5046173;28;20056;-78
2022/12/11 07:49:43;;;;;;;61.22;24.90;;;4.60;99.90;;;;;;5049025;28;20120;-78
2022/12/11 07:52:10;;;;;;;63.90;25.98;;;4.60;99.90;;;;;;5043119;28;20047;-78
2022/12/11 07:54:36;;;;;;;63.38;26.65;;;4.60;99.90;;;;;;5051235;28;20052;-78
2022/12/11 07:57:03;;;;;;;77.13;29.92;;;4.60;99.90;;;;;;5047228;28;20037;-78
2022/12/11 07:59:30;;;;;;;70.20;27.85;;;4.60;99.90;;;;;;5047932;28;20052;-79
2022/12/11 08:01:59;;;;;;;69.10;27.77;;;4.60;99.90;;;;;;5045373;28;20127;-79
2022/12/11 08:04:26;;;;;;;59.63;25.70;;;4.60;99.90;;;;;;5049465;28;20110;-79
2022/12/11 08:06:53;;;;;;;57.45;25.38;;;4.60;99.90;;;;;;5046706;28;20482;-79
2022/12/11 08:09:21;;;;;;;60.13;23.98;;;4.60;99.90;;;;;;5051741;28;20051;-79
2022/12/11 08:11:49;;;;;;;55.97;23.55;;;4.60;99.90;;;;;;5049107;28;20052;-80
2022/12/11 08:14:16;;;;;;;59.53;26.17;;;4.60;99.90;;;;;;5046834;28;20041;-80
2022/12/11 08:16:43;;;;;;;66.15;26.38;;;4.60;99.90;;;;;;5041763;22;20049;-82
2022/12/11 08:19:12;;;;;;;63.72;26.33;;;4.60;99.90;;;;;;5017043;28;20041;-86
2022/12/11 08:21:40;;;;;;;56.72;25.38;;;4.60;99.90;;;;;;5027405;28;20055;-83
2022/12/11 08:24:08;;;;;;;61.30;24.48;;;4.60;99.90;;;;;;5012879;28;20133;-83
2022/12/11 08:26:36;;;;;;;64.47;25.58;;;4.60;99.90;;;;;;5000473;28;20502;-86
2022/12/11 08:29:03;;;;;;;62.67;25.77;;;4.60;99.90;;;;;;5000631;28;20052;-81
2022/12/11 08:31:30;;;;;;;62.35;25.05;;;4.60;99.90;;;;;;5016247;28;20056;-86
2022/12/11 08:33:57;;;;;;;56.33;24.73;;;4.60;99.90;;;;;;5019858;28;20041;-79
2022/12/11 08:36:26;;;;;;;62.40;24.80;;;4.60;99.90;;;;;;5025316;28;20116;-83
2022/12/11 08:38:54;;;;;;;56.60;24.38;;;4.60;99.90;;;;;;5000692;28;20053;-82
2022/12/11 08:41:22;;;;;;;57.13;24.33;;;4.60;99.90;;;;;;5023944;28;20091;-82
2022/12/11 08:43:53;;;;;;;54.00;23.60;;;4.60;99.90;;;;;;5029810;28;20068;-81
2022/12/11 08:46:21;;;;;;;57.20;24.65;;;4.60;99.90;;;;;;4995126;28;20573;-77
2022/12/11 08:48:48;;;;;;;52.22;23.70;;;4.60;99.90;;;;;;5012325;28;20046;-81
2022/12/11 08:51:18;;;;;;;56.55;23.55;;;4.60;99.90;;;;;;5011375;28;20049;-84
2022/12/11 08:53:47;;;;;;;61.47;25.55;;;4.60;99.90;;;;;;5014835;28;20045;-79
2022/12/11 08:56:15;;;;;;;64.70;24.80;;;4.60;99.90;;;;;;5023794;28;20144;-85
2022/12/11 08:58:43;;;;;;;53.88;22.48;;;4.70;99.90;;;;;;5029694;28;20045;-83
2022/12/11 09:01:11;;;;;;;53.83;23.85;;;4.60;99.90;;;;;;5017479;28;20049;-86
2022/12/11 09:03:39;;;;;;;52.47;22.55;;;4.70;99.90;;;;;;5010029;28;20038;-86
2022/12/11 09:06:07;;;;;;;52.63;23.98;;;4.60;99.90;;;;;;5010020;28;20042;-85
2022/12/11 09:08:35;;;;;;;55.22;23.38;;;4.60;99.90;;;;;;5008147;28;20064;-85
2022/12/11 09:11:07;;;;;;;53.53;22.77;;;4.60;99.90;;;;;;4988249;28;20045;-85
2022/12/11 09:13:35;;;;;;;58.40;23.55;;;4.60;99.90;;;;;;5010405;28;20148;-85
2022/12/11 09:16:04;;;;;;;57.08;24.00;;;4.60;99.90;;;;;;5009438;28;20041;-85
2022/12/11 09:18:31;;;;;;;55.30;24.00;;;4.60;99.90;;;;;;5009825;28;20168;-85
2022/12/11 09:20:59;;;;;;;56.95;22.85;;;4.60;99.90;;;;;;5010630;28;20050;-85
2022/12/11 09:23:26;;;;;;;51.42;23.67;;;4.60;99.90;;;;;;5009757;28;20046;-85
2022/12/11 09:25:53;;;;;;;52.75;22.50;;;4.70;99.90;;;;;;5009169;28;20042;-84
2022/12/11 09:28:22;;;;;;;54.20;23.27;;;4.60;99.90;;;;;;5008514;28;20124;-85
2022/12/11 09:30:49;;;;;;;53.40;24.52;;;4.60;99.90;;;;;;5010226;28;20045;-85
2022/12/11 09:33:16;;;;;;;53.33;23.27;;;4.60;99.90;;;;;;5009550;28;20125;-83
2022/12/11 09:35:43;;;;;;;56.90;24.25;;;4.70;99.90;;;;;;5010007;28;20045;-84
2022/12/11 09:38:10;;;;;;;53.25;23.33;;;4.70;99.90;;;;;;5010329;28;20076;-84
2022/12/11 09:40:40;;;;;;;52.08;23.77;;;4.70;99.90;;;;;;5009247;28;20049;-84
2022/12/11 09:43:15;;;;;;;52.53;22.93;;;4.70;99.90;;;;;;4999819;28;20042;-85
2022/12/11 09:45:43;;;;;;;46.47;22.27;;;4.70;99.90;;;;;;4990179;28;20304;-84
2022/12/11 09:48:11;;;;;;;51.03;23.13;;;4.70;99.90;;;;;;5002813;28;20065;-84
2022/12/11 09:50:39;;;;;;;58.97;24.25;;;4.70;99.90;;;;;;5010221;28;20061;-84
2022/12/11 09:53:11;;;;;;;57.70;25.10;;;4.70;99.90;;;;;;5009301;28;20463;-85
2022/12/11 09:55:43;;;;;;;54.28;24.10;;;4.70;99.90;;;;;;5007354;28;20080;-84
2022/12/11 09:58:16;;;;;;;54.33;22.60;;;4.70;99.90;;;;;;5002399;28;20056;-84
2022/12/11 10:00:48;;;;;;;53.55;24.13;;;4.70;99.90;;;;;;5009379;28;20077;-83
2022/12/11 10:03:22;;;;;;;;;;;4.70;99.90;;;;;;5006352;28;20044;-83
2022/12/11 10:05:52;;;;;;;50.05;22.45;;;4.70;99.90;;;;;;5000699;28;19995;-83
2022/12/11 10:08:23;;;;;;;56.85;23.20;;;4.70;99.90;;;;;;5029431;28;20414;-85
2022/12/11 10:10:57;;;;;;;46.70;21.98;;;4.70;99.90;;;;;;5029282;28;20050;-85
2022/12/11 10:13:31;;;;;;;48.20;22.30;;;4.70;99.90;;;;;;5022787;28;20034;-84
2022/12/11 10:16:03;;;;;;;51.33;21.67;;;4.80;99.90;;;;;;5008186;28;20077;-84
2022/12/11 10:18:31;;;;;;;50.05;22.95;;;4.70;99.90;;;;;;5005901;28;20045;-84
2022/12/11 10:21:01;;;;;;;50.88;23.10;;;4.80;99.90;;;;;;5009594;28;20088;-83
2022/12/11 10:23:34;;;;;;;51.40;23.25;;;4.70;99.90;;;;;;5007129;28;20564;-83
2022/12/11 10:26:05;;;;;;;49.80;22.25;;;4.70;99.90;;;;;;5010947;28;20045;-85
2022/12/11 10:28:32;;;;;;;56.85;22.58;;;4.70;99.90;;;;;;5008740;28;20133;-87
2022/12/11 10:31:06;;;;;;;53.75;22.17;;;4.70;99.90;;;;;;5009007;28;20037;-86
2022/12/11 10:33:38;;;;;;;47.20;21.40;;;4.70;99.90;;;;;;5007532;28;20053;-86
2022/12/11 10:36:08;;;;;;;46.00;20.02;;;4.70;99.90;;;;;;5007454;28;20050;-86
2022/12/11 10:38:40;;;;;;;47.72;21.23;;;4.70;99.90;;;;;;5006175;28;20045;-86
2022/12/11 10:41:12;;;;;;;48.78;21.15;;;4.70;99.90;;;;;;4999502;28;20057;-86
2022/12/11 10:43:41;;;;;;;46.95;21.45;;;4.70;99.90;;;;;;5008824;28;20045;-86
2022/12/11 10:46:16;;;;;;;47.15;21.52;;;4.70;99.90;;;;;;5009416;28;20069;-82
2022/12/11 10:48:47;;;;;;;49.38;21.70;;;4.70;99.90;;;;;;5013915;28;20079;-84
2022/12/11 10:51:14;;;;;;;44.00;20.27;;;4.80;99.90;;;;;;4993585;28;20454;-82
2022/12/11 10:53:43;;;;;;;50.42;20.98;;;4.80;99.90;;;;;;5003325;28;20038;-80
2022/12/11 10:56:11;;;;;;;48.83;20.65;;;4.80;99.90;;;;;;5010879;28;20405;-83
2022/12/11 10:58:46;;;;;;;49.35;22.67;;;4.80;99.90;;;;;;5012269;28;20050;-86
2022/12/11 11:01:16;;;;;;;47.08;21.75;;;4.80;99.90;;;;;;5008963;28;20573;-85
2022/12/11 11:03:54;;;;;;;48.95;21.13;;;4.80;99.90;;;;;;5022734;28;20046;-91
2022/12/11 11:06:21;;;;;;;48.03;21.85;;;4.80;99.90;;;;;;5008492;28;20710;-87
2022/12/11 11:08:50;;;;;;;51.70;21.48;;;4.80;99.90;;;;;;5007581;28;20049;-87
2022/12/11 11:11:27;;;;;;;49.60;21.48;;;4.80;99.90;;;;;;5008054;28;20045;-85
2022/12/11 11:14:06;;;;;;;54.08;21.33;;;4.80;99.90;;;;;;5017788;28;20038;-87
2022/12/11 11:16:36;;;;;;;47.72;21.42;;;4.80;99.90;;;;;;5006924;28;20124;-87
2022/12/11 11:19:03;;;;;;;51.60;22.80;;;4.80;99.90;;;;;;5032595;28;20510;-88
2022/12/11 11:21:31;;;;;;;55.20;22.92;;;4.80;99.90;;;;;;5014136;28;20091;-87
2022/12/11 11:23:58;;;;;;;46.85;21.55;;;4.80;99.90;;;;;;5014641;28;20186;-89
2022/12/11 11:26:25;;;;;;;51.10;22.40;;;4.80;99.90;;;;;;5015307;28;20041;-89
2022/12/11 11:28:54;;;;;;;47.65;21.98;;;4.80;99.90;;;;;;5012735;28;20124;-91
2022/12/11 11:31:22;;;;;;;45.65;21.25;;;4.80;99.90;;;;;;5006978;28;20129;-91
2022/12/11 11:33:55;;;;;;;44.70;21.05;;;4.80;99.90;;;;;;5010732;28;20391;-89
2022/12/11 11:36:24;;;;;;;52.17;22.33;;;4.80;99.90;;;;;;5013930;28;20047;-88
2022/12/11 11:39:00;;;;;;;51.70;22.33;;;4.80;99.90;;;;;;5017535;28;20510;-86
2022/12/11 11:41:31;;;;;;;50.75;22.17;;;4.80;99.90;;;;;;5013767;28;20557;-86
2022/12/11 11:44:00;;;;;;;45.92;21.33;;;4.80;99.90;;;;;;5009738;28;20494;-89
2022/12/11 11:46:30;;;;;;;48.83;21.45;;;4.80;99.90;;;;;;5011508;28;20852;-88
2022/12/11 11:49:05;;;;;;;44.90;19.85;;;4.80;99.90;;;;;;5018177;28;20054;-89
2022/12/11 11:51:34;;;;;;;44.03;20.15;;;4.80;99.90;;;;;;5018439;28;20132;-88
2022/12/11 11:54:05;;;;;;;43.92;20.73;;;4.80;99.90;;;;;;5011973;28;20038;-88
2022/12/11 11:56:35;;;;;;;44.55;20.63;;;4.80;99.90;;;;;;5015114;28;20061;-89
2022/12/11 11:59:08;;;;;;;45.80;20.33;;;4.80;99.90;;;;;;5010586;28;20045;-88
2022/12/11 12:01:35;;;;;;;41.63;20.65;;;4.80;99.90;;;;;;5014878;28;20048;-89
2022/12/11 12:04:04;;;;;;;46.28;20.77;;;4.80;99.90;;;;;;4995624;28;20037;-89
2022/12/11 12:06:47;;;;;;;50.45;21.52;;;4.80;99.90;;;;;;5022662;28;20048;-90
2022/12/11 12:09:23;;;;;;;46.05;20.15;;;4.80;99.90;;;;;;5023104;28;20056;-89
2022/12/11 12:11:56;;;;;;;41.05;19.60;;;4.80;99.90;;;;;;5012211;28;20274;-90
2022/12/11 12:14:27;;;;;;;40.65;19.38;;;4.80;99.90;;;;;;5012911;28;20034;-90
2022/12/11 12:17:04;;;;;;;42.33;20.35;;;4.80;99.90;;;;;;5003903;28;20140;-88
2022/12/11 12:19:51;;;;;;;45.97;19.40;;;4.90;99.90;;;;;;5001169;28;20049;-89
2022/12/11 12:22:27;;;;;;;41.90;20.15;;;4.80;99.90;;;;;;5015803;28;20041;-94
2022/12/11 12:25:02;;;;;;;43.70;20.23;;;4.80;99.90;;;;;;5026347;28;20041;-86
2022/12/11 12:27:34;;;;;;;43.30;19.63;;;4.90;99.90;;;;;;5012450;28;20152;-86
2022/12/11 12:30:05;;;;;;;40.35;18.60;;;4.90;99.90;;;;;;5015595;28;20117;-87
2022/12/11 12:32:39;;;;;;;46.60;20.17;;;4.90;99.90;;;;;;5012697;28;20072;-87
2022/12/11 12:35:27;;;;;;;40.53;19.35;;;4.90;99.90;;;;;;4996233;28;20062;-92
2022/12/11 12:37:58;;;;;;;46.30;19.65;;;4.90;99.90;;;;;;4989185;28;20140;-91
2022/12/11 12:40:30;;;;;;;44.13;19.63;;;4.90;99.90;;;;;;5015022;28;20049;-94
2022/12/11 12:43:05;;;;;;;44.38;20.23;;;4.90;99.90;;;;;;5010483;28;20053;-92
2022/12/11 12:45:37;;;;;;;43.88;20.45;;;4.90;99.90;;;;;;4984707;28;20046;-91
2022/12/11 12:48:04;;;;;;;41.25;20.00;;;4.90;99.90;;;;;;5011668;28;20884;-93
2022/12/11 12:50:38;;;;;;;38.85;19.20;;;4.90;99.90;;;;;;5012959;28;20042;-93
2022/12/11 12:53:07;;;;;;;41.65;19.17;;;4.90;99.90;;;;;;4994639;28;20140;-93
2022/12/11 12:55:34;;;;;;;39.28;18.88;;;5.00;99.90;;;;;;5000163;28;20507;-91
2022/12/11 12:58:04;;;;;;;44.63;18.85;;;4.90;99.90;;;;;;4998592;28;20437;-94